sensor_id;sensor_type;location;lat;lon;timestamp;P1;durP1;ratioP1;P2;durP2;ratioP2
45466;SDS011;31212;49.734;8.490;2022-10-16T00:00:28;4.30;;;1.10;;
45466;SDS011;31212;49.734;8.490;2022-10-16T00:02:55;1.40;;;0.70;;
45466;SDS011;31212;49.734;8.490;2022-10-16T00:05:21;1.65;;;0.60;;
45466;SDS011;31212;49.734;8.490;2022-10-16T00:07:49;1.20;;;0.60;;
45466;SDS011;31212;49.734;8.490;2022-10-16T00:10:16;0.35;;;0.35;;
45466;SDS011;31212;49.734;8.490;2022-10-16T00:12:43;0.50;;;0.50;;
45466;SDS011;31212;49.734;8.490;2022-10-16T00:15:09;1.55;;;0.82;;
45466;SDS011;31212;49.734;8.490;2022-10-16T00:17:36;0.88;;;0.70;;
45466;SDS011;31212;49.734;8.490;2022-10-16T00:20:02;1.80;;;0.98;;
45466;SDS011;31212;49.734;8.490;2022-10-16T00:22:30;0.82;;;0.50;;
45466;SDS011;31212;49.734;8.490;2022-10-16T00:24:58;0.50;;;0.45;;
45466;SDS011;31212;49.734;8.490;2022-10-16T00:27:24;0.93;;;0.50;;
45466;SDS011;31212;49.734;8.490;2022-10-16T00:29:51;1.20;;;0.30;;
45466;SDS011;31212;49.734;8.490;2022-10-16T00:32:18;0.50;;;0.50;;
45466;SDS011;31212;49.734;8.490;2022-10-16T00:34:46;0.20;;;0.20;;
45466;SDS011;31212;49.734;8.490;2022-10-16T00:37:12;0.30;;;0.30;;
45466;SDS011;31212;49.734;8.490;2022-10-16T00:39:39;0.13;;;0.13;;
45466;SDS011;31212;49.734;8.490;2022-10-16T00:42:09;0.15;;;0.15;;
45466;SDS011;31212;49.734;8.490;2022-10-16T00:44:44;0.93;;;0.40;;
45466;SDS011;31212;49.734;8.490;2022-10-16T00:47:15;0.57;;;0.40;;
45466;SDS011;31212;49.734;8.490;2022-10-16T00:49:47;1.88;;;0.77;;
45466;SDS011;31212;49.734;8.490;2022-10-16T00:52:16;0.13;;;0.13;;
45466;SDS011;31212;49.734;8.490;2022-10-16T00:54:43;0.30;;;0.28;;
45466;SDS011;31212;49.734;8.490;2022-10-16T00:57:13;4.20;;;0.40;;
45466;SDS011;31212;49.734;8.490;2022-10-16T00:59:41;0.20;;;0.20;;
45466;SDS011;31212;49.734;8.490;2022-10-16T01:02:09;0.35;;;0.35;;
45466;SDS011;31212;49.734;8.490;2022-10-16T01:04:38;1.60;;;0.40;;
45466;SDS011;31212;49.734;8.490;2022-10-16T01:07:12;4.47;;;0.55;;
45466;SDS011;31212;49.734;8.490;2022-10-16T01:09:54;0.20;;;0.20;;
45466;SDS011;31212;49.734;8.490;2022-10-16T01:12:36;0.43;;;0.20;;
45466;SDS011;31212;49.734;8.490;2022-10-16T01:15:09;0.63;;;0.40;;
45466;SDS011;31212;49.734;8.490;2022-10-16T01:17:45;0.30;;;0.28;;
45466;SDS011;31212;49.734;8.490;2022-10-16T01:20:20;0.32;;;0.20;;
45466;SDS011;31212;49.734;8.490;2022-10-16T01:23:03;0.60;;;0.50;;
45466;SDS011;31212;49.734;8.490;2022-10-16T01:25:37;0.50;;;0.47;;
45466;SDS011;31212;49.734;8.490;2022-10-16T01:28:16;1.55;;;0.82;;
45466;SDS011;31212;49.734;8.490;2022-10-16T01:30:45;0.80;;;0.65;;
45466;SDS011;31212;49.734;8.490;2022-10-16T01:33:14;1.20;;;0.70;;
45466;SDS011;31212;49.734;8.490;2022-10-16T01:35:46;1.65;;;0.98;;
45466;SDS011;31212;49.734;8.490;2022-10-16T01:38:18;14.00;;;1.02;;
45466;SDS011;31212;49.734;8.490;2022-10-16T01:40:48;0.68;;;0.68;;
45466;SDS011;31212;49.734;8.490;2022-10-16T01:43:20;0.93;;;0.75;;
45466;SDS011;31212;49.734;8.490;2022-10-16T01:45:50;3.28;;;1.02;;
45466;SDS011;31212;49.734;8.490;2022-10-16T01:48:18;1.20;;;1.00;;
45466;SDS011;31212;49.734;8.490;2022-10-16T01:50:49;1.02;;;0.70;;
45466;SDS011;31212;49.734;8.490;2022-10-16T01:53:21;1.33;;;0.90;;
45466;SDS011;31212;49.734;8.490;2022-10-16T01:55:49;1.00;;;0.90;;
45466;SDS011;31212;49.734;8.490;2022-10-16T01:58:20;1.75;;;1.02;;
45466;SDS011;31212;49.734;8.490;2022-10-16T02:00:50;2.13;;;1.25;;
45466;SDS011;31212;49.734;8.490;2022-10-16T02:03:22;1.65;;;0.85;;
45466;SDS011;31212;49.734;8.490;2022-10-16T02:05:49;2.30;;;1.00;;
45466;SDS011;31212;49.734;8.490;2022-10-16T02:08:18;2.85;;;1.55;;
45466;SDS011;31212;49.734;8.490;2022-10-16T02:10:45;1.33;;;1.15;;
45466;SDS011;31212;49.734;8.490;2022-10-16T02:13:13;5.82;;;1.20;;
45466;SDS011;31212;49.734;8.490;2022-10-16T02:15:45;2.47;;;1.20;;
45466;SDS011;31212;49.734;8.490;2022-10-16T02:18:12;1.48;;;1.17;;
45466;SDS011;31212;49.734;8.490;2022-10-16T02:20:40;2.00;;;1.10;;
45466;SDS011;31212;49.734;8.490;2022-10-16T02:23:13;1.88;;;1.45;;
45466;SDS011;31212;49.734;8.490;2022-10-16T02:25:46;1.63;;;1.20;;
45466;SDS011;31212;49.734;8.490;2022-10-16T02:28:16;3.10;;;1.63;;
45466;SDS011;31212;49.734;8.490;2022-10-16T02:30:48;3.90;;;1.40;;
45466;SDS011;31212;49.734;8.490;2022-10-16T02:33:17;2.33;;;1.25;;
45466;SDS011;31212;49.734;8.490;2022-10-16T02:35:47;1.88;;;1.30;;
45466;SDS011;31212;49.734;8.490;2022-10-16T02:38:16;2.45;;;1.10;;
45466;SDS011;31212;49.734;8.490;2022-10-16T02:40:44;4.28;;;1.38;;
45466;SDS011;31212;49.734;8.490;2022-10-16T02:43:11;2.20;;;1.05;;
45466;SDS011;31212;49.734;8.490;2022-10-16T02:45:38;1.80;;;1.10;;
45466;SDS011;31212;49.734;8.490;2022-10-16T02:48:06;2.60;;;1.20;;
45466;SDS011;31212;49.734;8.490;2022-10-16T02:50:33;6.03;;;1.45;;
45466;SDS011;31212;49.734;8.490;2022-10-16T02:53:00;3.35;;;1.20;;
45466;SDS011;31212;49.734;8.490;2022-10-16T02:55:27;1.75;;;1.13;;
45466;SDS011;31212;49.734;8.490;2022-10-16T02:57:53;1.88;;;1.23;;
45466;SDS011;31212;49.734;8.490;2022-10-16T03:00:20;1.83;;;1.30;;
45466;SDS011;31212;49.734;8.490;2022-10-16T03:02:47;1.00;;;0.90;;
45466;SDS011;31212;49.734;8.490;2022-10-16T03:05:15;3.70;;;1.55;;
45466;SDS011;31212;49.734;8.490;2022-10-16T03:07:42;2.60;;;1.45;;
45466;SDS011;31212;49.734;8.490;2022-10-16T03:10:08;6.57;;;1.58;;
45466;SDS011;31212;49.734;8.490;2022-10-16T03:12:35;1.52;;;1.10;;
45466;SDS011;31212;49.734;8.490;2022-10-16T03:15:02;2.83;;;1.45;;
45466;SDS011;31212;49.734;8.490;2022-10-16T03:17:31;2.05;;;1.60;;
45466;SDS011;31212;49.734;8.490;2022-10-16T03:19:58;2.42;;;1.80;;
45466;SDS011;31212;49.734;8.490;2022-10-16T03:22:26;3.72;;;2.40;;
45466;SDS011;31212;49.734;8.490;2022-10-16T03:24:53;5.82;;;2.53;;
45466;SDS011;31212;49.734;8.490;2022-10-16T03:27:19;5.03;;;3.05;;
45466;SDS011;31212;49.734;8.490;2022-10-16T03:29:46;5.85;;;3.45;;
45466;SDS011;31212;49.734;8.490;2022-10-16T03:32:12;6.68;;;4.07;;
45466;SDS011;31212;49.734;8.490;2022-10-16T03:34:39;12.10;;;5.53;;
45466;SDS011;31212;49.734;8.490;2022-10-16T03:37:06;11.43;;;5.13;;
45466;SDS011;31212;49.734;8.490;2022-10-16T03:39:34;12.07;;;5.10;;
45466;SDS011;31212;49.734;8.490;2022-10-16T03:42:00;11.70;;;4.35;;
45466;SDS011;31212;49.734;8.490;2022-10-16T03:44:27;7.35;;;3.70;;
45466;SDS011;31212;49.734;8.490;2022-10-16T03:46:53;12.23;;;5.40;;
45466;SDS011;31212;49.734;8.490;2022-10-16T03:49:20;4.60;;;2.70;;
45466;SDS011;31212;49.734;8.490;2022-10-16T03:51:46;4.53;;;2.67;;
45466;SDS011;31212;49.734;8.490;2022-10-16T03:54:13;4.60;;;1.83;;
45466;SDS011;31212;49.734;8.490;2022-10-16T03:56:41;3.20;;;2.20;;
45466;SDS011;31212;49.734;8.490;2022-10-16T03:59:07;5.78;;;2.53;;
45466;SDS011;31212;49.734;8.490;2022-10-16T04:01:34;6.22;;;2.38;;
45466;SDS011;31212;49.734;8.490;2022-10-16T04:04:00;3.17;;;1.95;;
45466;SDS011;31212;49.734;8.490;2022-10-16T04:06:27;5.70;;;3.10;;
45466;SDS011;31212;49.734;8.490;2022-10-16T04:08:53;10.40;;;3.53;;
45466;SDS011;31212;49.734;8.490;2022-10-16T04:11:20;11.90;;;4.95;;
45466;SDS011;31212;49.734;8.490;2022-10-16T04:13:47;9.95;;;4.82;;
45466;SDS011;31212;49.734;8.490;2022-10-16T04:16:14;7.05;;;4.03;;
45466;SDS011;31212;49.734;8.490;2022-10-16T04:18:40;5.63;;;3.50;;
45466;SDS011;31212;49.734;8.490;2022-10-16T04:21:07;6.40;;;3.10;;
45466;SDS011;31212;49.734;8.490;2022-10-16T04:23:34;4.22;;;2.38;;
45466;SDS011;31212;49.734;8.490;2022-10-16T04:26:00;3.28;;;2.15;;
45466;SDS011;31212;49.734;8.490;2022-10-16T04:28:27;6.60;;;2.90;;
45466;SDS011;31212;49.734;8.490;2022-10-16T04:30:55;3.58;;;2.75;;
45466;SDS011;31212;49.734;8.490;2022-10-16T04:33:22;5.32;;;2.47;;
45466;SDS011;31212;49.734;8.490;2022-10-16T04:35:55;4.25;;;1.85;;
45466;SDS011;31212;49.734;8.490;2022-10-16T04:38:22;2.63;;;1.52;;
45466;SDS011;31212;49.734;8.490;2022-10-16T04:40:48;3.83;;;2.08;;
45466;SDS011;31212;49.734;8.490;2022-10-16T04:43:15;1.95;;;1.25;;
45466;SDS011;31212;49.734;8.490;2022-10-16T04:45:42;2.35;;;1.63;;
45466;SDS011;31212;49.734;8.490;2022-10-16T04:48:10;2.85;;;1.80;;
45466;SDS011;31212;49.734;8.490;2022-10-16T04:50:36;1.55;;;1.23;;
45466;SDS011;31212;49.734;8.490;2022-10-16T04:53:05;2.22;;;1.58;;
45466;SDS011;31212;49.734;8.490;2022-10-16T04:55:32;2.63;;;1.67;;
45466;SDS011;31212;49.734;8.490;2022-10-16T04:57:59;4.28;;;1.80;;
45466;SDS011;31212;49.734;8.490;2022-10-16T05:00:26;3.22;;;1.38;;
45466;SDS011;31212;49.734;8.490;2022-10-16T05:02:52;3.00;;;1.70;;
45466;SDS011;31212;49.734;8.490;2022-10-16T05:05:20;2.00;;;1.35;;
45466;SDS011;31212;49.734;8.490;2022-10-16T05:07:48;1.67;;;1.13;;
45466;SDS011;31212;49.734;8.490;2022-10-16T05:10:14;2.30;;;1.63;;
45466;SDS011;31212;49.734;8.490;2022-10-16T05:12:42;2.22;;;1.55;;
45466;SDS011;31212;49.734;8.490;2022-10-16T05:15:09;1.58;;;1.10;;
45466;SDS011;31212;49.734;8.490;2022-10-16T05:17:36;1.85;;;1.25;;
45466;SDS011;31212;49.734;8.490;2022-10-16T05:20:03;2.65;;;1.23;;
45466;SDS011;31212;49.734;8.490;2022-10-16T05:22:32;4.28;;;1.45;;
45466;SDS011;31212;49.734;8.490;2022-10-16T05:24:58;3.30;;;1.20;;
45466;SDS011;31212;49.734;8.490;2022-10-16T05:27:25;2.90;;;1.63;;
45466;SDS011;31212;49.734;8.490;2022-10-16T05:29:52;2.90;;;1.58;;
45466;SDS011;31212;49.734;8.490;2022-10-16T05:32:18;1.95;;;1.38;;
45466;SDS011;31212;49.734;8.490;2022-10-16T05:34:45;2.67;;;1.42;;
45466;SDS011;31212;49.734;8.490;2022-10-16T05:37:12;1.92;;;1.40;;
45466;SDS011;31212;49.734;8.490;2022-10-16T05:39:40;1.98;;;1.13;;
45466;SDS011;31212;49.734;8.490;2022-10-16T05:42:07;4.07;;;1.77;;
45466;SDS011;31212;49.734;8.490;2022-10-16T05:44:33;2.75;;;1.25;;
45466;SDS011;31212;49.734;8.490;2022-10-16T05:47:00;2.15;;;1.50;;
45466;SDS011;31212;49.734;8.490;2022-10-16T05:49:26;1.40;;;0.90;;
45466;SDS011;31212;49.734;8.490;2022-10-16T05:51:53;2.20;;;1.50;;
45466;SDS011;31212;49.734;8.490;2022-10-16T05:54:22;1.23;;;0.95;;
45466;SDS011;31212;49.734;8.490;2022-10-16T05:56:50;6.72;;;1.50;;
45466;SDS011;31212;49.734;8.490;2022-10-16T05:59:17;1.90;;;1.17;;
45466;SDS011;31212;49.734;8.490;2022-10-16T06:01:43;3.40;;;1.20;;
45466;SDS011;31212;49.734;8.490;2022-10-16T06:04:10;2.45;;;1.50;;
45466;SDS011;31212;49.734;8.490;2022-10-16T06:06:36;2.67;;;1.20;;
45466;SDS011;31212;49.734;8.490;2022-10-16T06:09:03;3.72;;;1.58;;
45466;SDS011;31212;49.734;8.490;2022-10-16T06:11:31;5.43;;;2.45;;
45466;SDS011;31212;49.734;8.490;2022-10-16T06:14:01;7.28;;;2.78;;
45466;SDS011;31212;49.734;8.490;2022-10-16T06:16:31;2.63;;;1.73;;
45466;SDS011;31212;49.734;8.490;2022-10-16T06:18:58;2.38;;;1.63;;
45466;SDS011;31212;49.734;8.490;2022-10-16T06:21:25;2.30;;;1.42;;
45466;SDS011;31212;49.734;8.490;2022-10-16T06:23:54;3.83;;;1.77;;
45466;SDS011;31212;49.734;8.490;2022-10-16T06:26:22;1.92;;;0.90;;
45466;SDS011;31212;49.734;8.490;2022-10-16T06:28:50;3.28;;;1.40;;
45466;SDS011;31212;49.734;8.490;2022-10-16T06:31:18;2.35;;;1.30;;
45466;SDS011;31212;49.734;8.490;2022-10-16T06:33:45;1.42;;;1.08;;
45466;SDS011;31212;49.734;8.490;2022-10-16T06:36:16;2.72;;;1.42;;
45466;SDS011;31212;49.734;8.490;2022-10-16T06:38:44;2.38;;;1.35;;
45466;SDS011;31212;49.734;8.490;2022-10-16T06:41:12;10.23;;;1.30;;
45466;SDS011;31212;49.734;8.490;2022-10-16T06:43:40;2.55;;;1.45;;
45466;SDS011;31212;49.734;8.490;2022-10-16T06:46:09;1.90;;;1.35;;
45466;SDS011;31212;49.734;8.490;2022-10-16T06:48:38;1.48;;;0.90;;
45466;SDS011;31212;49.734;8.490;2022-10-16T06:51:05;2.53;;;1.20;;
45466;SDS011;31212;49.734;8.490;2022-10-16T06:53:35;3.13;;;1.27;;
45466;SDS011;31212;49.734;8.490;2022-10-16T06:56:07;2.80;;;1.90;;
45466;SDS011;31212;49.734;8.490;2022-10-16T06:58:35;3.03;;;1.70;;
45466;SDS011;31212;49.734;8.490;2022-10-16T07:01:02;2.65;;;1.55;;
45466;SDS011;31212;49.734;8.490;2022-10-16T07:03:28;2.55;;;1.17;;
45466;SDS011;31212;49.734;8.490;2022-10-16T07:05:56;1.70;;;1.05;;
45466;SDS011;31212;49.734;8.490;2022-10-16T07:08:23;2.78;;;1.77;;
45466;SDS011;31212;49.734;8.490;2022-10-16T07:10:57;3.80;;;0.95;;
45466;SDS011;31212;49.734;8.490;2022-10-16T07:13:24;3.08;;;1.70;;
45466;SDS011;31212;49.734;8.490;2022-10-16T07:15:51;3.15;;;1.38;;
45466;SDS011;31212;49.734;8.490;2022-10-16T07:18:17;2.05;;;1.48;;
45466;SDS011;31212;49.734;8.490;2022-10-16T07:20:44;4.22;;;2.40;;
45466;SDS011;31212;49.734;8.490;2022-10-16T07:23:12;3.25;;;1.98;;
45466;SDS011;31212;49.734;8.490;2022-10-16T07:25:39;4.32;;;1.75;;
45466;SDS011;31212;49.734;8.490;2022-10-16T07:28:05;3.65;;;2.13;;
45466;SDS011;31212;49.734;8.490;2022-10-16T07:30:34;6.15;;;2.72;;
45466;SDS011;31212;49.734;8.490;2022-10-16T07:33:01;5.25;;;3.25;;
45466;SDS011;31212;49.734;8.490;2022-10-16T07:35:27;5.47;;;3.40;;
45466;SDS011;31212;49.734;8.490;2022-10-16T07:37:54;5.57;;;3.38;;
45466;SDS011;31212;49.734;8.490;2022-10-16T07:40:22;3.95;;;2.35;;
45466;SDS011;31212;49.734;8.490;2022-10-16T07:42:48;3.83;;;1.83;;
45466;SDS011;31212;49.734;8.490;2022-10-16T07:45:15;3.28;;;1.55;;
45466;SDS011;31212;49.734;8.490;2022-10-16T07:47:42;2.25;;;1.25;;
45466;SDS011;31212;49.734;8.490;2022-10-16T07:50:08;3.78;;;2.05;;
45466;SDS011;31212;49.734;8.490;2022-10-16T07:52:35;2.17;;;1.40;;
45466;SDS011;31212;49.734;8.490;2022-10-16T07:55:01;2.17;;;1.85;;
45466;SDS011;31212;49.734;8.490;2022-10-16T07:57:29;1.63;;;1.10;;
45466;SDS011;31212;49.734;8.490;2022-10-16T07:59:56;1.80;;;1.30;;
45466;SDS011;31212;49.734;8.490;2022-10-16T08:02:22;1.65;;;1.23;;
45466;SDS011;31212;49.734;8.490;2022-10-16T08:04:49;2.22;;;1.20;;
45466;SDS011;31212;49.734;8.490;2022-10-16T08:07:16;1.98;;;1.40;;
45466;SDS011;31212;49.734;8.490;2022-10-16T08:09:42;1.40;;;1.00;;
45466;SDS011;31212;49.734;8.490;2022-10-16T08:12:09;2.55;;;1.13;;
45466;SDS011;31212;49.734;8.490;2022-10-16T08:14:37;3.47;;;1.45;;
45466;SDS011;31212;49.734;8.490;2022-10-16T08:17:04;1.38;;;1.10;;
45466;SDS011;31212;49.734;8.490;2022-10-16T08:19:30;13.68;;;2.03;;
45466;SDS011;31212;49.734;8.490;2022-10-16T08:21:59;1.30;;;0.98;;
45466;SDS011;31212;49.734;8.490;2022-10-16T08:24:26;4.35;;;1.75;;
45466;SDS011;31212;49.734;8.490;2022-10-16T08:26:55;1.98;;;1.33;;
45466;SDS011;31212;49.734;8.490;2022-10-16T08:29:22;2.67;;;1.27;;
45466;SDS011;31212;49.734;8.490;2022-10-16T08:31:53;2.08;;;1.33;;
45466;SDS011;31212;49.734;8.490;2022-10-16T08:34:21;5.30;;;2.55;;
45466;SDS011;31212;49.734;8.490;2022-10-16T08:36:52;5.57;;;1.75;;
45466;SDS011;31212;49.734;8.490;2022-10-16T08:39:20;3.90;;;1.20;;
45466;SDS011;31212;49.734;8.490;2022-10-16T08:44:56;2.13;;;1.02;;
45466;SDS011;31212;49.734;8.490;2022-10-16T08:47:45;2.08;;;1.13;;
45466;SDS011;31212;49.734;8.490;2022-10-16T08:50:22;2.95;;;1.88;;
45466;SDS011;31212;49.734;8.490;2022-10-16T08:52:52;5.35;;;2.33;;
45466;SDS011;31212;49.734;8.490;2022-10-16T08:55:28;3.08;;;1.70;;
45466;SDS011;31212;49.734;8.490;2022-10-16T08:58:00;4.32;;;1.98;;
45466;SDS011;31212;49.734;8.490;2022-10-16T09:00:28;2.72;;;1.40;;
45466;SDS011;31212;49.734;8.490;2022-10-16T09:03:03;2.28;;;1.23;;
45466;SDS011;31212;49.734;8.490;2022-10-16T09:05:43;6.40;;;1.88;;
45466;SDS011;31212;49.734;8.490;2022-10-16T09:08:20;2.17;;;1.20;;
45466;SDS011;31212;49.734;8.490;2022-10-16T09:10:58;1.95;;;1.30;;
45466;SDS011;31212;49.734;8.490;2022-10-16T09:16:07;2.35;;;1.17;;
45466;SDS011;31212;49.734;8.490;2022-10-16T09:18:45;3.05;;;1.60;;
45466;SDS011;31212;49.734;8.490;2022-10-16T09:21:19;3.03;;;2.03;;
45466;SDS011;31212;49.734;8.490;2022-10-16T09:23:50;2.28;;;1.48;;
45466;SDS011;31212;49.734;8.490;2022-10-16T09:26:17;2.40;;;1.65;;
45466;SDS011;31212;49.734;8.490;2022-10-16T09:28:47;3.15;;;1.20;;
45466;SDS011;31212;49.734;8.490;2022-10-16T09:31:15;3.67;;;1.27;;
45466;SDS011;31212;49.734;8.490;2022-10-16T09:33:49;2.22;;;1.50;;
45466;SDS011;31212;49.734;8.490;2022-10-16T09:36:23;2.35;;;1.55;;
45466;SDS011;31212;49.734;8.490;2022-10-16T09:39:03;2.63;;;1.52;;
45466;SDS011;31212;49.734;8.490;2022-10-16T09:41:33;2.08;;;1.35;;
45466;SDS011;31212;49.734;8.490;2022-10-16T09:44:03;2.20;;;1.08;;
45466;SDS011;31212;49.734;8.490;2022-10-16T09:46:33;2.75;;;1.10;;
45466;SDS011;31212;49.734;8.490;2022-10-16T09:49:05;1.92;;;0.93;;
45466;SDS011;31212;49.734;8.490;2022-10-16T09:54:13;1.88;;;1.10;;
45466;SDS011;31212;49.734;8.490;2022-10-16T09:56:44;0.95;;;0.80;;
45466;SDS011;31212;49.734;8.490;2022-10-16T09:59:15;4.75;;;0.80;;
45466;SDS011;31212;49.734;8.490;2022-10-16T10:01:46;2.10;;;1.20;;
45466;SDS011;31212;49.734;8.490;2022-10-16T10:06:45;0.43;;;0.43;;
45466;SDS011;31212;49.734;8.490;2022-10-16T10:09:16;1.70;;;0.73;;
45466;SDS011;31212;49.734;8.490;2022-10-16T10:11:53;1.30;;;0.88;;
45466;SDS011;31212;49.734;8.490;2022-10-16T10:14:23;1.23;;;0.68;;
45466;SDS011;31212;49.734;8.490;2022-10-16T10:16:52;0.82;;;0.80;;
45466;SDS011;31212;49.734;8.490;2022-10-16T10:19:36;1.25;;;0.90;;
45466;SDS011;31212;49.734;8.490;2022-10-16T10:22:12;1.73;;;0.80;;
45466;SDS011;31212;49.734;8.490;2022-10-16T10:24:44;2.03;;;0.98;;
45466;SDS011;31212;49.734;8.490;2022-10-16T10:27:13;1.17;;;0.70;;
45466;SDS011;31212;49.734;8.490;2022-10-16T10:29:46;1.38;;;1.00;;
45466;SDS011;31212;49.734;8.490;2022-10-16T10:32:23;0.93;;;0.68;;
45466;SDS011;31212;49.734;8.490;2022-10-16T10:35:11;0.88;;;0.80;;
45466;SDS011;31212;49.734;8.490;2022-10-16T10:37:47;1.27;;;0.65;;
45466;SDS011;31212;49.734;8.490;2022-10-16T10:40:36;1.73;;;0.90;;
45466;SDS011;31212;49.734;8.490;2022-10-16T10:43:11;1.08;;;0.80;;
45466;SDS011;31212;49.734;8.490;2022-10-16T10:45:55;2.42;;;0.75;;
45466;SDS011;31212;49.734;8.490;2022-10-16T10:48:43;1.38;;;0.70;;
45466;SDS011;31212;49.734;8.490;2022-10-16T10:51:24;3.83;;;1.27;;
45466;SDS011;31212;49.734;8.490;2022-10-16T10:54:02;2.25;;;1.02;;
45466;SDS011;31212;49.734;8.490;2022-10-16T10:56:43;1.90;;;0.65;;
45466;SDS011;31212;49.734;8.490;2022-10-16T11:02:21;0.98;;;0.70;;
45466;SDS011;31212;49.734;8.490;2022-10-16T11:05:00;1.80;;;1.02;;
45466;SDS011;31212;49.734;8.490;2022-10-16T11:07:43;1.17;;;0.63;;
45466;SDS011;31212;49.734;8.490;2022-10-16T11:10:23;1.10;;;0.57;;
45466;SDS011;31212;49.734;8.490;2022-10-16T11:12:55;1.90;;;0.80;;
45466;SDS011;31212;49.734;8.490;2022-10-16T11:17:57;2.70;;;0.80;;
45466;SDS011;31212;49.734;8.490;2022-10-16T11:20:32;2.15;;;0.70;;
45466;SDS011;31212;49.734;8.490;2022-10-16T11:23:07;1.15;;;0.90;;
45466;SDS011;31212;49.734;8.490;2022-10-16T11:25:41;1.77;;;1.10;;
45466;SDS011;31212;49.734;8.490;2022-10-16T11:28:12;2.08;;;0.93;;
45466;SDS011;31212;49.734;8.490;2022-10-16T11:30:44;1.98;;;0.90;;
45466;SDS011;31212;49.734;8.490;2022-10-16T11:33:22;1.65;;;0.82;;
45466;SDS011;31212;49.734;8.490;2022-10-16T11:35:59;1.60;;;0.95;;
45466;SDS011;31212;49.734;8.490;2022-10-16T11:38:34;1.05;;;0.90;;
45466;SDS011;31212;49.734;8.490;2022-10-16T11:41:11;6.93;;;1.10;;
45466;SDS011;31212;49.734;8.490;2022-10-16T11:43:49;0.95;;;0.70;;
45466;SDS011;31212;49.734;8.490;2022-10-16T11:46:25;1.23;;;0.90;;
45466;SDS011;31212;49.734;8.490;2022-10-16T11:48:56;1.38;;;0.85;;
45466;SDS011;31212;49.734;8.490;2022-10-16T11:51:32;1.25;;;1.05;;
45466;SDS011;31212;49.734;8.490;2022-10-16T11:54:05;1.15;;;0.93;;
45466;SDS011;31212;49.734;8.490;2022-10-16T11:56:46;1.83;;;1.20;;
45466;SDS011;31212;49.734;8.490;2022-10-16T11:59:17;1.92;;;1.00;;
45466;SDS011;31212;49.734;8.490;2022-10-16T12:01:49;1.80;;;1.08;;
45466;SDS011;31212;49.734;8.490;2022-10-16T12:04:24;0.88;;;0.88;;
45466;SDS011;31212;49.734;8.490;2022-10-16T12:06:59;0.95;;;0.75;;
45466;SDS011;31212;49.734;8.490;2022-10-16T12:09:32;1.53;;;1.17;;
45466;SDS011;31212;49.734;8.490;2022-10-16T12:12:04;4.20;;;1.60;;
45466;SDS011;31212;49.734;8.490;2022-10-16T12:14:36;1.35;;;1.08;;
45466;SDS011;31212;49.734;8.490;2022-10-16T12:20:00;2.80;;;1.98;;
45466;SDS011;31212;49.734;8.490;2022-10-16T12:22:47;3.30;;;1.10;;
45466;SDS011;31212;49.734;8.490;2022-10-16T12:25:26;3.15;;;1.40;;
45466;SDS011;31212;49.734;8.490;2022-10-16T12:28:03;2.58;;;1.10;;
45466;SDS011;31212;49.734;8.490;2022-10-16T12:30:33;2.22;;;1.15;;
45466;SDS011;31212;49.734;8.490;2022-10-16T12:33:02;1.67;;;0.95;;
45466;SDS011;31212;49.734;8.490;2022-10-16T12:35:33;1.60;;;1.25;;
45466;SDS011;31212;49.734;8.490;2022-10-16T12:38:15;4.43;;;1.00;;
45466;SDS011;31212;49.734;8.490;2022-10-16T12:40:45;1.35;;;0.95;;
45466;SDS011;31212;49.734;8.490;2022-10-16T12:46:22;3.55;;;1.25;;
45466;SDS011;31212;49.734;8.490;2022-10-16T12:49:06;2.28;;;1.17;;
45466;SDS011;31212;49.734;8.490;2022-10-16T12:51:47;1.92;;;1.15;;
45466;SDS011;31212;49.734;8.490;2022-10-16T12:54:15;2.83;;;1.83;;
45466;SDS011;31212;49.734;8.490;2022-10-16T12:56:50;1.50;;;1.20;;
45466;SDS011;31212;49.734;8.490;2022-10-16T12:59:29;1.45;;;1.17;;
45466;SDS011;31212;49.734;8.490;2022-10-16T13:05:16;1.02;;;0.80;;
45466;SDS011;31212;49.734;8.490;2022-10-16T13:07:53;2.28;;;1.17;;
45466;SDS011;31212;49.734;8.490;2022-10-16T13:10:31;3.25;;;1.13;;
45466;SDS011;31212;49.734;8.490;2022-10-16T13:13:18;1.85;;;1.33;;
45466;SDS011;31212;49.734;8.490;2022-10-16T13:16:04;1.35;;;1.00;;
45466;SDS011;31212;49.734;8.490;2022-10-16T13:18:42;1.02;;;0.85;;
45466;SDS011;31212;49.734;8.490;2022-10-16T13:21:27;2.50;;;0.90;;
45466;SDS011;31212;49.734;8.490;2022-10-16T13:24:10;1.17;;;0.90;;
45466;SDS011;31212;49.734;8.490;2022-10-16T13:26:53;1.73;;;1.10;;
45466;SDS011;31212;49.734;8.490;2022-10-16T13:29:31;0.95;;;0.80;;
45466;SDS011;31212;49.734;8.490;2022-10-16T13:32:00;2.58;;;1.38;;
45466;SDS011;31212;49.734;8.490;2022-10-16T13:34:41;5.78;;;1.30;;
45466;SDS011;31212;49.734;8.490;2022-10-16T13:37:16;5.40;;;0.90;;
45466;SDS011;31212;49.734;8.490;2022-10-16T13:39:45;1.50;;;1.13;;
45466;SDS011;31212;49.734;8.490;2022-10-16T13:42:14;0.80;;;0.80;;
45466;SDS011;31212;49.734;8.490;2022-10-16T13:44:52;1.70;;;0.95;;
45466;SDS011;31212;49.734;8.490;2022-10-16T13:47:20;1.70;;;1.08;;
45466;SDS011;31212;49.734;8.490;2022-10-16T13:49:58;2.65;;;1.25;;
45466;SDS011;31212;49.734;8.490;2022-10-16T13:52:26;2.35;;;1.15;;
45466;SDS011;31212;49.734;8.490;2022-10-16T13:54:54;3.45;;;1.20;;
45466;SDS011;31212;49.734;8.490;2022-10-16T13:57:22;1.33;;;0.93;;
45466;SDS011;31212;49.734;8.490;2022-10-16T13:59:54;5.28;;;0.93;;
45466;SDS011;31212;49.734;8.490;2022-10-16T14:02:24;1.65;;;0.80;;
45466;SDS011;31212;49.734;8.490;2022-10-16T14:04:53;1.17;;;1.08;;
45466;SDS011;31212;49.734;8.490;2022-10-16T14:07:23;5.38;;;1.08;;
45466;SDS011;31212;49.734;8.490;2022-10-16T14:09:53;4.50;;;1.10;;
45466;SDS011;31212;49.734;8.490;2022-10-16T14:12:22;1.35;;;0.88;;
45466;SDS011;31212;49.734;8.490;2022-10-16T14:14:54;1.55;;;1.02;;
45466;SDS011;31212;49.734;8.490;2022-10-16T14:17:24;3.50;;;1.20;;
45466;SDS011;31212;49.734;8.490;2022-10-16T14:19:57;1.00;;;0.75;;
45466;SDS011;31212;49.734;8.490;2022-10-16T14:22:32;1.00;;;0.90;;
45466;SDS011;31212;49.734;8.490;2022-10-16T14:25:00;2.92;;;1.17;;
45466;SDS011;31212;49.734;8.490;2022-10-16T14:27:40;2.28;;;1.02;;
45466;SDS011;31212;49.734;8.490;2022-10-16T14:30:17;1.27;;;1.15;;
45466;SDS011;31212;49.734;8.490;2022-10-16T14:32:55;1.48;;;0.93;;
45466;SDS011;31212;49.734;8.490;2022-10-16T14:35:33;2.45;;;1.33;;
45466;SDS011;31212;49.734;8.490;2022-10-16T14:38:03;0.93;;;0.70;;
45466;SDS011;31212;49.734;8.490;2022-10-16T14:40:34;1.48;;;0.95;;
45466;SDS011;31212;49.734;8.490;2022-10-16T14:43:04;1.88;;;1.20;;
45466;SDS011;31212;49.734;8.490;2022-10-16T14:45:41;6.25;;;1.38;;
45466;SDS011;31212;49.734;8.490;2022-10-16T14:48:15;3.42;;;0.82;;
45466;SDS011;31212;49.734;8.490;2022-10-16T14:50:46;2.55;;;1.10;;
45466;SDS011;31212;49.734;8.490;2022-10-16T14:53:15;3.92;;;0.93;;
45466;SDS011;31212;49.734;8.490;2022-10-16T14:55:42;3.25;;;1.90;;
45466;SDS011;31212;49.734;8.490;2022-10-16T14:58:13;1.20;;;0.90;;
45466;SDS011;31212;49.734;8.490;2022-10-16T15:00:43;3.42;;;0.90;;
45466;SDS011;31212;49.734;8.490;2022-10-16T15:03:11;2.40;;;1.10;;
45466;SDS011;31212;49.734;8.490;2022-10-16T15:05:38;1.05;;;0.93;;
45466;SDS011;31212;49.734;8.490;2022-10-16T15:08:07;2.15;;;1.20;;
45466;SDS011;31212;49.734;8.490;2022-10-16T15:10:38;1.67;;;0.98;;
45466;SDS011;31212;49.734;8.490;2022-10-16T15:13:09;2.97;;;1.00;;
45466;SDS011;31212;49.734;8.490;2022-10-16T15:15:40;1.83;;;0.90;;
45466;SDS011;31212;49.734;8.490;2022-10-16T15:18:11;1.42;;;1.02;;
45466;SDS011;31212;49.734;8.490;2022-10-16T15:20:40;1.15;;;0.75;;
45466;SDS011;31212;49.734;8.490;2022-10-16T15:23:10;3.75;;;1.05;;
45466;SDS011;31212;49.734;8.490;2022-10-16T15:25:44;1.88;;;1.05;;
45466;SDS011;31212;49.734;8.490;2022-10-16T15:28:13;0.95;;;0.82;;
45466;SDS011;31212;49.734;8.490;2022-10-16T15:30:45;1.90;;;1.20;;
45466;SDS011;31212;49.734;8.490;2022-10-16T15:33:14;1.23;;;0.80;;